Time;durP1;ratioP1;P1;durP2;ratioP2;P2;SDS_P1;SDS_P2;PMS_P1;PMS_P2;Temp;Humidity;BMP_temperature;BMP_pressure;BME280_temperature;BME280_humidity;BME280_pressure;Samples;Min_cycle;Max_cycle;Signal;HPM_P1;HPM_P2
2022/02/02 00:00:18;;;;;;;1.73;1.63;;;3.80;99.90;;;;;;6087307;29;20036;-81
2022/02/02 00:03:21;;;;;;;1.80;1.60;;;4.00;99.90;;;;;;6118702;29;20109;-79
2022/02/02 00:06:30;;;;;;;1.50;1.40;;;4.50;99.90;;;;;;6086754;29;20120;-80
2022/02/02 00:09:31;;;;;;;1.58;1.48;;;4.20;99.90;;;;;;6105918;28;20066;-81
2022/02/02 00:12:45;;;;;;;2.70;2.03;;;4.40;99.90;;;;;;6130348;29;20042;-81
2022/02/02 00:15:57;;;;;;;2.10;1.90;;;4.20;99.90;;;;;;6116507;29;20457;-80
2022/02/02 00:19:04;;;;;;;1.80;1.70;;;3.80;99.90;;;;;;6115723;29;20074;-80
2022/02/02 00:22:11;;;;;;;2.80;1.80;;;5.30;99.90;;;;;;6131483;29;20035;-80
2022/02/02 00:25:18;;;;;;;1.70;1.60;;;4.10;99.90;;;;;;6131561;29;20035;-82
2022/02/02 00:28:22;;;;;;;2.65;1.55;;;4.20;99.90;;;;;;6114817;29;20031;-81
2022/02/02 00:31:29;;;;;;;1.60;1.50;;;4.10;99.90;;;;;;6130810;29;20023;-81
2022/02/02 00:34:31;;;;;;;2.20;1.98;;;4.30;99.90;;;;;;6114928;29;20024;-79
2022/02/02 00:37:31;;;;;;;2.03;1.70;;;4.20;99.90;;;;;;6113911;29;20243;-79
2022/02/02 00:40:32;;;;;;;2.60;1.90;;;4.10;99.90;;;;;;6113343;28;20149;-81
2022/02/02 00:43:33;;;;;;;2.78;2.58;;;4.80;99.90;;;;;;6129670;29;20028;-83
2022/02/02 00:46:33;;;;;;;2.40;2.20;;;4.80;99.90;;;;;;6129805;29;20031;-82
2022/02/02 00:49:35;;;;;;;2.50;2.30;;;4.50;99.90;;;;;;6113925;29;20032;-81
2022/02/02 00:52:36;;;;;;;2.57;2.33;;;4.50;99.90;;;;;;6113885;29;20027;-81
2022/02/02 00:55:37;;;;;;;2.40;2.20;;;4.90;99.90;;;;;;6129564;29;20035;-81
2022/02/02 00:58:38;;;;;;;2.70;2.50;;;4.40;99.90;;;;;;6113824;29;20035;-81
2022/02/02 01:01:39;;;;;;;2.30;2.10;;;4.70;99.90;;;;;;6129688;28;20497;-81
2022/02/02 01:04:39;;;;;;;3.30;2.42;;;7.20;99.90;;;;;;6113871;29;20039;-81
2022/02/02 01:10:55;;;;;;;2.42;2.00;;;4.70;99.90;;;;;;6121489;29;20060;-82
2022/02/02 01:29:47;;;;;;;2.63;2.25;;;5.10;99.90;;;;;;6120592;29;20035;-80
2022/02/02 01:32:47;;;;;;;2.10;1.90;;;4.70;99.90;;;;;;6086002;29;20060;-80
2022/02/02 01:35:49;;;;;;;2.60;2.05;;;5.10;99.90;;;;;;6082806;29;20028;-80
2022/02/02 01:38:52;;;;;;;3.22;2.28;;;4.60;99.90;;;;;;6105300;29;20119;-82
2022/02/02 01:41:53;;;;;;;4.13;2.53;;;4.60;99.90;;;;;;6105586;29;20406;-80
2022/02/02 01:45:09;;;;;;;3.05;2.42;;;5.10;99.90;;;;;;6121188;29;20031;-80
2022/02/02 01:52:20;;;;;;;2.80;2.50;;;4.60;99.90;;;;;;6110750;29;20082;-81
2022/02/02 01:54:56;;;;;;;3.08;2.78;;;6.10;99.90;;;;;;6113057;29;20038;-81
2022/02/02 01:58:11;;;;;;;2.70;2.47;;;4.60;99.90;;;;;;6095318;29;20663;-82
2022/02/02 02:01:12;;;;;;;3.70;2.85;;;5.50;99.90;;;;;;6084278;29;20499;-82
2022/02/02 02:04:12;;;;;;;4.10;2.92;;;4.60;99.90;;;;;;6082208;29;20036;-80
2022/02/02 02:07:13;;;;;;;4.07;2.80;;;5.10;99.90;;;;;;6099436;29;20035;-81
2022/02/02 02:10:14;;;;;;;3.83;3.00;;;4.90;99.90;;;;;;6086138;29;20143;-81
2022/02/02 02:13:53;;;;;;;3.05;2.65;;;4.80;99.90;;;;;;6097348;29;20372;-80
2022/02/02 02:16:35;;;;;;;4.63;3.13;;;6.60;99.90;;;;;;6096520;29;20040;-81
2022/02/02 02:19:42;;;;;;;4.80;2.60;;;4.90;99.90;;;;;;6098624;29;20043;-81
2022/02/02 02:22:44;;;;;;;3.15;2.85;;;4.90;99.90;;;;;;6101844;29;20589;-81
2022/02/02 02:25:44;;;;;;;4.30;2.63;;;4.90;99.90;;;;;;6101577;29;20029;-81
2022/02/02 02:29:45;;;;;;;5.25;2.85;;;5.50;99.90;;;;;;6101250;29;20115;-80
2022/02/02 02:32:29;;;;;;;4.13;2.85;;;6.40;99.90;;;;;;6088250;29;20451;-83
2022/02/02 02:35:58;;;;;;;3.45;2.60;;;6.00;99.90;;;;;;6087638;29;20083;-82
2022/02/02 02:59:09;;;;;;;3.65;2.58;;;4.90;99.90;;;;;;6100934;29;20044;-80
2022/02/02 03:57:57;;;;;;;3.88;3.03;;;6.40;99.90;;;;;;6102010;29;20483;-80
2022/02/02 04:04:41;;;;;;;4.47;3.53;;;4.90;99.90;;;;;;6117170;29;20087;-80
2022/02/02 04:11:12;;;;;;;6.20;3.08;;;5.00;99.90;;;;;;6113482;29;20055;-81
2022/02/02 04:38:27;;;;;;;6.97;3.30;;;5.70;99.90;;;;;;6121911;29;20039;-81
2022/02/02 04:54:38;;;;;;;7.18;3.72;;;5.70;99.90;;;;;;6122500;29;20114;-81
2022/02/02 05:04:23;;;;;;;7.75;3.55;;;5.80;99.90;;;;;;6122288;29;20474;-82
2022/02/02 05:07:41;;;;;;;6.65;3.58;;;5.40;99.90;;;;;;6121674;29;20053;-81
2022/02/02 05:11:11;;;;;;;5.60;3.70;;;5.40;99.90;;;;;;6108110;29;20489;-81
2022/02/02 05:17:36;;;;;;;4.63;3.35;;;5.30;99.90;;;;;;6121700;29;20031;-81
2022/02/02 05:25:12;;;;;;;4.35;2.90;;;5.30;99.90;;;;;;6121752;29;20076;-81
2022/02/02 05:53:27;;;;;;;8.23;3.53;;;5.40;99.90;;;;;;6121019;29;20106;-82
2022/02/02 05:56:28;;;;;;;10.30;3.42;;;5.40;99.90;;;;;;6111365;29;20034;-81
2022/02/02 05:59:32;;;;;;;6.32;3.17;;;5.50;99.90;;;;;;6107674;29;20497;-79
2022/02/02 06:02:33;;;;;;;5.93;3.10;;;5.50;99.90;;;;;;6110446;29;20051;-81
2022/02/02 06:05:34;;;;;;;6.05;3.58;;;5.10;99.90;;;;;;6109797;29;20027;-83
2022/02/02 06:08:34;;;;;;;8.80;3.38;;;5.40;99.90;;;;;;6109168;29;20394;-80
2022/02/02 06:11:37;;;;;;;7.20;3.30;;;5.40;99.90;;;;;;6092349;29;20056;-81
2022/02/02 06:14:39;;;;;;;;;;;4.90;99.90;;;;;;6102972;29;20040;-81
2022/02/02 06:17:44;;;;;;;6.90;3.42;;;5.40;99.90;;;;;;6105899;29;19919;-85
2022/02/02 06:20:47;;;;;;;10.85;4.00;;;5.60;99.90;;;;;;6101947;29;20063;-81
2022/02/02 06:23:55;;;;;;;5.82;3.25;;;5.40;99.90;;;;;;6101709;29;20032;-81
2022/02/02 06:26:56;;;;;;;8.20;3.58;;;5.70;99.90;;;;;;6101795;29;20063;-82
2022/02/02 06:30:00;;;;;;;9.70;3.67;;;5.50;99.90;;;;;;6100858;29;20032;-81
2022/02/02 06:33:06;;;;;;;7.75;3.95;;;5.70;99.90;;;;;;6101490;29;20035;-81
2022/02/02 06:36:09;;;;;;;6.40;3.00;;;5.60;99.90;;;;;;6101815;29;20115;-84
2022/02/02 06:39:11;;;;;;;5.95;3.92;;;5.60;99.90;;;;;;6100556;29;20052;-84
2022/02/02 06:42:13;;;;;;;5.00;3.13;;;6.90;99.90;;;;;;6101688;29;20036;-80
2022/02/02 06:45:13;;;;;;;5.53;3.28;;;5.50;99.90;;;;;;6101400;29;20504;-80
2022/02/02 06:48:14;;;;;;;7.93;3.28;;;5.90;99.90;;;;;;6101246;29;20034;-80
2022/02/02 06:51:20;;;;;;;6.18;3.08;;;5.70;99.90;;;;;;6100027;29;20127;-80
2022/02/02 06:54:40;;;;;;;7.82;3.22;;;5.70;99.90;;;;;;6100135;29;20028;-80
2022/02/02 06:58:16;;;;;;;14.68;3.55;;;6.60;99.90;;;;;;6103142;29;20040;-80
2022/02/02 07:11:29;;;;;;;8.13;3.63;;;5.90;99.90;;;;;;6081929;29;20053;-79
2022/02/02 07:17:51;;;;;;;6.63;3.47;;;6.00;99.90;;;;;;6055768;29;20044;-78
2022/02/02 07:30:56;;;;;;;4.10;3.28;;;5.80;99.90;;;;;;6048487;29;20036;-78
2022/02/02 07:34:08;;;;;;;7.15;3.40;;;5.80;99.90;;;;;;6035499;29;20048;-79
2022/02/02 07:37:12;;;;;;;9.27;4.18;;;5.80;99.90;;;;;;6059500;29;20056;-81
2022/02/02 07:40:13;;;;;;;8.88;3.80;;;5.80;99.90;;;;;;6035095;29;20049;-80
2022/02/02 07:43:42;;;;;;;6.60;3.58;;;5.90;99.90;;;;;;6071109;29;20043;-80
2022/02/02 07:46:54;;;;;;;6.93;3.80;;;6.00;99.90;;;;;;6083241;29;20104;-80
2022/02/02 07:49:56;;;;;;;4.43;3.35;;;5.80;99.90;;;;;;6105568;29;20035;-79
2022/02/02 07:53:05;;;;;;;7.80;3.33;;;6.00;99.90;;;;;;6101504;29;20388;-80
2022/02/02 07:56:12;;;;;;;6.93;3.45;;;6.20;99.90;;;;;;6102656;29;20036;-80
2022/02/02 07:59:20;;;;;;;7.95;4.43;;;5.80;99.90;;;;;;6099935;29;20039;-78
2022/02/02 08:02:35;;;;;;;8.07;4.10;;;5.80;99.90;;;;;;6107242;29;20027;-81
2022/02/02 08:05:39;;;;;;;13.25;4.90;;;6.30;99.90;;;;;;6122455;29;20050;-81
2022/02/02 08:08:42;;;;;;;12.30;4.47;;;6.00;99.90;;;;;;6120533;29;20492;-80
2022/02/02 08:11:43;;;;;;;;;;;6.50;99.90;;;;;;6107199;29;20615;-82
2022/02/02 08:14:45;;;;;;;7.32;3.58;;;6.40;99.90;;;;;;6086613;29;19919;-80
2022/02/02 08:17:47;;;;;;;6.65;3.50;;;6.00;99.90;;;;;;6101227;29;20100;-82
2022/02/02 08:20:48;;;;;;;;;;;5.90;99.90;;;;;;6088868;29;20040;-83
2022/02/02 08:23:49;;;;;;;7.28;4.07;;;6.00;99.90;;;;;;6087203;29;19915;-82
2022/02/02 08:26:50;;;;;;;8.82;4.18;;;5.90;99.90;;;;;;6105378;29;20065;-81
2022/02/02 08:29:50;;;;;;;6.32;5.05;;;6.10;99.90;;;;;;6087210;29;20027;-78
2022/02/02 08:32:57;;;;;;;7.47;4.10;;;6.30;99.90;;;;;;6101658;29;20036;-82
2022/02/02 08:35:58;;;;;;;11.25;3.85;;;6.00;99.90;;;;;;6089522;29;20482;-80
2022/02/02 08:39:18;;;;;;;7.72;3.85;;;6.10;99.90;;;;;;6103129;29;20124;-80
2022/02/02 08:42:18;;;;;;;11.30;4.07;;;6.20;99.90;;;;;;6109064;29;20035;-79
2022/02/02 08:45:26;;;;;;;7.75;4.47;;;6.30;99.90;;;;;;6121362;29;20390;-79
2022/02/02 08:48:27;;;;;;;8.18;4.57;;;6.60;99.90;;;;;;6089029;29;20043;-79
2022/02/02 08:51:32;;;;;;;12.10;5.72;;;6.40;99.90;;;;;;6096425;29;20378;-80
2022/02/02 08:54:44;;;;;;;19.83;9.45;;;6.40;99.90;;;;;;6101316;29;20024;-78
2022/02/02 08:57:53;;;;;;;7.57;4.78;;;6.50;99.90;;;;;;6078066;29;20032;-79
2022/02/02 09:00:54;;;;;;;7.85;4.57;;;6.50;99.90;;;;;;6088372;29;20036;-78
2022/02/02 09:07:15;;;;;;;8.98;5.15;;;6.60;99.90;;;;;;6107663;29;20032;-80
2022/02/02 09:10:24;;;;;;;8.63;4.57;;;6.80;99.90;;;;;;6106738;29;20059;-83
2022/02/02 09:31:24;;;;;;;10.23;3.42;;;6.70;99.90;;;;;;6121542;29;20434;-83
2022/02/02 09:36:11;;;;;;;9.32;4.68;;;6.60;99.90;;;;;;6121129;29;20070;-81
2022/02/02 09:39:21;;;;;;;7.75;3.60;;;6.70;99.90;;;;;;6121356;29;20070;-82
2022/02/02 09:42:22;;;;;;;9.60;3.72;;;6.60;99.90;;;;;;6104461;29;20118;-83
2022/02/02 09:45:24;;;;;;;8.95;4.18;;;7.50;99.90;;;;;;6104229;29;20036;-82
2022/02/02 09:48:44;;;;;;;7.38;4.45;;;6.80;99.90;;;;;;6115569;29;20024;-80
2022/02/02 09:51:51;;;;;;;7.43;4.53;;;7.10;99.90;;;;;;6105321;29;20124;-84
2022/02/02 09:55:11;;;;;;;9.60;4.80;;;6.80;99.90;;;;;;6105416;29;20474;-79
2022/02/02 10:04:37;;;;;;;30.30;17.05;;;6.70;99.90;;;;;;6121487;29;20118;-80
2022/02/02 10:16:48;;;;;;;6.97;3.50;;;7.00;99.90;;;;;;6120948;29;20031;-80
2022/02/02 10:19:48;;;;;;;9.45;4.18;;;6.70;99.90;;;;;;6104780;29;20422;-80
2022/02/02 10:22:50;;;;;;;6.82;3.70;;;6.60;99.90;;;;;;6121168;29;20043;-80
2022/02/02 10:25:57;;;;;;;6.90;4.20;;;6.60;99.90;;;;;;6120645;29;20383;-80
2022/02/02 10:29:08;;;;;;;6.28;3.90;;;6.60;99.90;;;;;;6120859;29;20039;-80
2022/02/02 10:32:08;;;;;;;6.63;4.40;;;6.50;99.90;;;;;;6120684;29;20023;-81
2022/02/02 10:35:10;;;;;;;9.02;4.20;;;6.50;99.90;;;;;;6105031;29;20036;-81
2022/02/02 10:38:13;;;;;;;6.28;4.13;;;6.80;99.90;;;;;;6104391;29;20040;-81
2022/02/02 10:41:20;;;;;;;11.75;4.28;;;6.40;99.90;;;;;;6122964;29;20079;-80
2022/02/02 10:44:25;;;;;;;20.23;7.95;;;6.60;99.90;;;;;;6123965;29;20059;-78
2022/02/02 10:47:31;;;;;;;9.18;5.25;;;6.80;99.90;;;;;;6108772;29;20028;-77
2022/02/02 10:50:41;;;;;;;8.15;4.78;;;6.80;99.90;;;;;;6124705;29;20027;-79
2022/02/02 10:58:01;;;;;;;19.00;9.88;;;6.90;99.90;;;;;;6122472;29;20042;-78
2022/02/02 11:01:20;;;;;;;12.77;7.53;;;7.00;99.90;;;;;;6096405;29;20102;-81
2022/02/02 11:07:35;;;;;;;9.07;5.85;;;7.00;99.90;;;;;;6095648;29;20036;-80
2022/02/02 11:10:36;;;;;;;16.73;6.45;;;6.90;99.90;;;;;;6090352;29;20484;-80
2022/02/02 11:13:37;;;;;;;10.00;4.75;;;7.10;99.90;;;;;;6106591;29;20661;-79
2022/02/02 11:16:37;;;;;;;11.95;4.43;;;7.10;99.90;;;;;;6090431;29;20066;-81
2022/02/02 11:19:38;;;;;;;7.55;4.55;;;7.20;99.90;;;;;;6090352;29;20051;-80
2022/02/02 11:22:50;;;;;;;12.48;4.97;;;7.20;99.90;;;;;;6106075;29;20035;-82
2022/02/02 11:25:54;;;;;;;11.65;4.90;;;7.30;99.90;;;;;;6091059;29;20465;-78
2022/02/02 11:28:55;;;;;;;10.60;4.68;;;7.30;99.90;;;;;;6104349;29;20126;-80
2022/02/02 11:32:06;;;;;;;7.82;4.40;;;7.30;99.90;;;;;;6107855;29;20050;-80
2022/02/02 11:35:32;;;;;;;9.70;4.50;;;7.30;99.90;;;;;;6107590;29;20082;-79
2022/02/02 11:38:39;;;;;;;10.88;4.78;;;7.30;99.90;;;;;;6123271;29;20036;-78
2022/02/02 11:41:56;;;;;;;9.77;4.47;;;7.30;99.90;;;;;;6122868;29;20079;-79
2022/02/02 11:45:13;;;;;;;7.72;4.03;;;7.30;99.90;;;;;;6123383;29;20117;-79
2022/02/02 11:48:54;;;;;;;7.22;4.72;;;7.50;99.90;;;;;;6123685;29;20087;-78
2022/02/02 11:52:03;;;;;;;7.45;4.13;;;7.30;99.90;;;;;;6121440;29;20082;-79
2022/02/02 11:55:27;;;;;;;10.00;4.70;;;7.30;99.90;;;;;;6123413;29;20115;-78
2022/02/02 11:58:31;;;;;;;6.50;3.80;;;7.30;99.90;;;;;;6118105;29;20051;-79
2022/02/02 12:01:37;;;;;;;9.73;4.00;;;7.10;99.90;;;;;;6122982;29;20130;-79
2022/02/02 12:05:08;;;;;;;8.40;4.10;;;7.30;99.90;;;;;;6122611;29;20043;-80
2022/02/02 12:48:15;;;;;;;8.50;3.80;;;7.50;99.90;;;;;;6120747;29;20047;-77
2022/02/02 12:57:46;;;;;;;7.25;4.72;;;7.50;99.90;;;;;;6121209;29;20103;-79
2022/02/02 13:04:08;;;;;;;7.78;4.63;;;7.50;99.90;;;;;;6116210;29;20470;-78
2022/02/02 13:07:10;;;;;;;5.97;3.33;;;7.50;99.90;;;;;;6105765;29;20043;-79
2022/02/02 13:10:12;;;;;;;4.78;3.70;;;7.50;99.90;;;;;;6114788;29;20056;-79
2022/02/02 13:13:22;;;;;;;12.65;8.15;;;7.60;99.90;;;;;;6082593;29;20044;-79
2022/02/02 13:16:26;;;;;;;7.07;5.57;;;7.50;99.90;;;;;;6098472;29;20399;-81
2022/02/02 13:19:32;;;;;;;7.35;6.07;;;7.50;99.90;;;;;;6110925;29;20048;-78
2022/02/02 13:22:34;;;;;;;6.93;6.05;;;7.50;99.90;;;;;;6083318;29;20055;-80
2022/02/02 13:25:36;;;;;;;4.82;4.32;;;7.50;99.90;;;;;;6112397;29;20402;-80
2022/02/02 13:38:24;;;;;;;5.47;3.60;;;7.40;99.90;;;;;;6113525;29;20131;-80
2022/02/02 13:45:06;;;;;;;3.70;2.87;;;7.50;99.90;;;;;;6110331;29;20052;-79
2022/02/02 13:52:27;;;;;;;3.88;3.05;;;7.50;99.90;;;;;;6098865;29;20025;-77
2022/02/02 13:55:29;;;;;;;3.28;2.83;;;7.80;99.90;;;;;;6100601;29;20071;-78
2022/02/02 14:08:01;;;;;;;3.65;3.05;;;7.50;99.90;;;;;;6107365;29;20119;-77
2022/02/02 14:11:24;;;;;;;4.82;3.13;;;7.50;99.90;;;;;;6113940;29;20054;-78
2022/02/02 14:34:06;;;;;;;2.85;2.55;;;7.60;99.90;;;;;;6124687;29;20031;-77
2022/02/02 14:37:13;;;;;;;3.60;2.95;;;7.60;99.90;;;;;;6109092;29;20525;-77
2022/02/02 14:40:22;;;;;;;3.58;3.05;;;7.60;99.90;;;;;;6124445;29;20071;-78
2022/02/02 14:43:32;;;;;;;3.00;2.67;;;7.70;99.90;;;;;;6123916;29;20042;-78
2022/02/02 14:46:41;;;;;;;2.70;2.50;;;7.60;99.90;;;;;;6124590;29;20505;-78
2022/02/02 14:53:13;;;;;;;3.97;2.67;;;7.70;99.90;;;;;;6123462;29;20031;-78
2022/02/02 15:09:46;;;;;;;3.42;3.00;;;7.70;99.90;;;;;;6125681;28;20051;-78
2022/02/02 15:29:35;;;;;;;3.42;2.85;;;7.70;99.90;;;;;;6112450;29;20043;-78
2022/02/02 15:32:37;;;;;;;3.05;2.60;;;7.70;99.90;;;;;;6131832;29;20027;-78
2022/02/02 15:35:41;;;;;;;3.30;2.78;;;7.70;99.90;;;;;;6115520;29;20046;-77
2022/02/02 15:38:43;;;;;;;2.60;2.40;;;7.70;99.90;;;;;;6131060;29;20086;-78
2022/02/02 15:42:04;;;;;;;5.43;3.95;;;7.70;99.90;;;;;;6130718;29;20032;-77
2022/02/02 15:58:47;;;;;;;3.95;3.30;;;7.80;99.90;;;;;;6078364;29;20048;-76
2022/02/02 16:05:12;;;;;;;3.00;2.70;;;7.80;99.90;;;;;;6073981;29;20036;-77
2022/02/02 16:08:15;;;;;;;3.13;2.75;;;7.80;99.90;;;;;;6075518;29;20495;-77
2022/02/02 16:11:20;;;;;;;2.78;2.58;;;7.80;99.90;;;;;;6074066;29;20092;-80
2022/02/02 16:14:28;;;;;;;3.67;3.30;;;7.80;99.90;;;;;;6096258;29;20608;-76
2022/02/02 16:36:54;;;;;;;11.13;8.82;;;7.60;99.90;;;;;;6132192;28;20126;-77
2022/02/02 16:39:59;;;;;;;9.68;6.72;;;7.70;99.90;;;;;;6113941;29;20138;-77
2022/02/02 16:46:08;;;;;;;7.07;5.47;;;7.60;99.90;;;;;;6130124;29;20074;-78
2022/02/02 16:49:09;;;;;;;8.43;5.90;;;7.60;99.90;;;;;;6112450;28;20082;-77
2022/02/02 16:52:10;;;;;;;6.45;4.90;;;7.50;99.90;;;;;;6129560;28;20477;-77
2022/02/02 16:55:18;;;;;;;4.68;4.28;;;7.60;99.90;;;;;;6129268;29;20370;-78
2022/02/02 17:28:54;;;;;;;5.70;4.28;;;7.60;99.90;;;;;;6145823;28;20023;-80
2022/02/02 17:31:11;;;;;;;4.00;3.50;;;7.70;99.90;;;;;;6131186;28;20043;-77
2022/02/02 17:34:23;;;;;;;6.85;3.72;;;7.60;99.90;;;;;;6113780;29;20035;-77
2022/02/02 17:41:56;;;;;;;;;;;7.50;99.90;;;;;;6061313;29;20095;-78
2022/02/02 18:20:24;;;;;;;4.47;3.45;;;7.90;99.90;;;;;;6099104;29;20044;-80
2022/02/02 18:23:33;;;;;;;5.75;4.88;;;7.90;99.90;;;;;;6101114;29;20029;-81
2022/02/02 18:26:47;;;;;;;11.68;7.45;;;7.90;99.90;;;;;;6100512;29;20484;-80
2022/02/02 18:30:18;;;;;;;7.40;6.47;;;7.90;99.90;;;;;;6101855;29;20036;-80
2022/02/02 18:36:41;;;;;;;6.68;5.53;;;7.70;99.90;;;;;;6101681;29;20028;-83
2022/02/02 18:49:23;;;;;;;6.88;5.47;;;7.40;99.90;;;;;;6101510;29;20068;-82
2022/02/02 18:59:37;;;;;;;6.55;5.32;;;7.40;99.90;;;;;;6052403;29;20101;-79
2022/02/02 20:05:15;;;;;;;7.50;6.60;;;6.40;99.90;;;;;;6099785;29;20830;-82
2022/02/02 20:11:26;;;;;;;8.35;7.43;;;6.60;99.90;;;;;;6117606;29;20259;-82
2022/02/02 20:14:27;;;;;;;11.57;9.27;;;6.50;99.90;;;;;;6121939;29;20087;-81
2022/02/02 20:17:28;;;;;;;11.27;9.20;;;6.60;99.90;;;;;;6122489;29;20032;-80
2022/02/02 20:20:29;;;;;;;8.35;7.45;;;6.50;99.90;;;;;;6106237;29;20047;-80
2022/02/02 20:23:29;;;;;;;9.00;6.68;;;6.50;99.90;;;;;;6106935;29;20039;-82
2022/02/02 20:26:32;;;;;;;10.13;8.15;;;6.70;99.90;;;;;;6122339;29;20031;-83
2022/02/02 20:29:33;;;;;;;9.13;8.02;;;7.80;99.90;;;;;;6107118;29;20061;-83
2022/02/02 20:32:33;;;;;;;10.60;7.82;;;6.40;99.90;;;;;;6122556;29;20390;-82
2022/02/02 20:35:42;;;;;;;9.23;8.32;;;6.80;99.90;;;;;;6264947;28;20396;-81
2022/02/02 20:38:42;;;;;;;10.60;7.70;;;6.30;99.90;;;;;;6263078;28;20068;-81
2022/02/02 20:41:43;;;;;;;11.30;8.43;;;6.30;99.90;;;;;;6246674;28;20024;-82
2022/02/02 20:45:10;;;;;;;23.23;15.27;;;6.20;99.90;;;;;;6263224;28;20033;-80
2022/02/02 21:04:55;;;;;;;8.15;7.30;;;6.40;99.90;;;;;;6242419;28;20029;-79
2022/02/02 21:11:13;;;;;;;8.55;7.38;;;6.30;99.90;;;;;;6244475;28;20036;-78
2022/02/02 21:14:16;;;;;;;8.32;7.53;;;6.10;99.90;;;;;;6226085;28;20049;-81
2022/02/02 21:17:20;;;;;;;10.35;8.20;;;6.20;99.90;;;;;;6242706;28;20116;-77
2022/02/02 21:20:27;;;;;;;9.90;7.65;;;6.10;99.90;;;;;;6225246;28;20045;-77
2022/02/02 21:29:56;;;;;;;8.30;7.43;;;6.00;99.90;;;;;;6206705;28;20034;-82
2022/02/02 21:32:57;;;;;;;8.25;6.93;;;6.80;99.90;;;;;;6236082;28;20052;-81
2022/02/02 21:35:58;;;;;;;7.70;6.82;;;5.90;99.90;;;;;;6221088;28;20084;-79
2022/02/02 21:39:05;;;;;;;7.60;6.18;;;5.90;99.90;;;;;;6236394;28;20490;-79
2022/02/02 21:42:06;;;;;;;7.43;6.35;;;6.40;99.90;;;;;;6205696;28;20030;-78
2022/02/02 21:45:07;;;;;;;7.07;6.25;;;6.00;99.90;;;;;;6214228;28;20034;-80
2022/02/02 21:48:07;;;;;;;6.93;5.88;;;6.00;99.90;;;;;;6221769;28;20083;-80
2022/02/02 21:51:11;;;;;;;7.93;6.57;;;5.90;99.90;;;;;;6187332;28;20029;-79
2022/02/02 21:54:11;;;;;;;8.52;5.85;;;5.90;99.90;;;;;;6219733;28;20088;-81
2022/02/02 21:57:12;;;;;;;6.65;5.25;;;6.00;99.90;;;;;;6187139;28;20095;-79
2022/02/02 22:00:13;;;;;;;8.90;6.15;;;6.00;99.90;;;;;;6221278;28;20072;-80
2022/02/02 22:03:14;;;;;;;7.45;5.82;;;6.10;99.90;;;;;;6204033;28;20057;-78
2022/02/02 22:06:14;;;;;;;6.65;5.95;;;6.10;99.90;;;;;;6219741;28;20065;-79
2022/02/02 22:09:15;;;;;;;6.72;6.03;;;6.00;99.90;;;;;;6219943;28;20018;-80
2022/02/02 22:12:15;;;;;;;7.15;6.20;;;6.60;99.90;;;;;;6203778;28;20030;-80
2022/02/02 22:15:27;;;;;;;7.93;5.82;;;5.90;99.90;;;;;;6203953;28;20088;-80
2022/02/02 22:18:28;;;;;;;7.28;6.35;;;5.90;99.90;;;;;;6204594;28;20101;-81
2022/02/02 22:21:29;;;;;;;7.47;6.68;;;5.90;99.90;;;;;;6218238;28;20034;-83
2022/02/02 22:24:35;;;;;;;6.33;5.73;;;7.50;99.90;;;;;;6202660;28;20022;-80
2022/02/02 22:27:35;;;;;;;7.85;6.47;;;5.80;99.90;;;;;;6231430;28;20029;-79
2022/02/02 22:30:36;;;;;;;7.75;5.53;;;5.80;99.90;;;;;;6203028;28;20030;-80
2022/02/02 22:33:37;;;;;;;7.03;5.65;;;5.70;99.90;;;;;;6186374;28;20068;-79
2022/02/02 22:36:37;;;;;;;8.15;5.47;;;7.10;99.90;;;;;;6202227;28;20133;-80
2022/02/02 22:39:41;;;;;;;7.38;5.68;;;5.80;99.90;;;;;;6200910;28;20026;-80
2022/02/02 22:42:44;;;;;;;7.03;5.80;;;6.50;99.90;;;;;;6217757;28;20050;-80
2022/02/02 22:45:47;;;;;;;6.50;5.57;;;5.70;99.90;;;;;;6185894;28;20057;-81
2022/02/02 22:48:48;;;;;;;6.72;5.68;;;5.80;99.90;;;;;;6202395;28;20467;-80
2022/02/02 22:51:48;;;;;;;16.13;6.10;;;5.70;99.90;;;;;;6185966;28;20030;-80
2022/02/02 22:54:49;;;;;;;7.43;6.03;;;5.70;99.90;;;;;;6186248;28;20041;-80
2022/02/02 22:57:50;;;;;;;8.90;6.47;;;5.30;99.90;;;;;;6185586;28;20030;-80
2022/02/02 23:00:50;;;;;;;8.32;7.07;;;5.70;99.90;;;;;;6202699;28;20033;-80
2022/02/02 23:03:53;;;;;;;12.52;7.32;;;5.70;99.90;;;;;;6202888;28;20030;-80
2022/02/02 23:07:00;;;;;;;8.90;7.10;;;5.70;99.90;;;;;;6218909;28;20030;-81
2022/02/02 23:10:01;;;;;;;7.22;6.05;;;5.70;99.90;;;;;;6203420;28;20073;-80
2022/02/02 23:13:02;;;;;;;7.47;5.70;;;5.70;99.90;;;;;;6202231;28;20932;-80
2022/02/02 23:16:08;;;;;;;8.35;6.28;;;5.80;99.90;;;;;;6202626;28;20028;-79
2022/02/02 23:19:08;;;;;;;7.72;6.22;;;5.80;99.90;;;;;;6182645;28;20026;-79
2022/02/02 23:22:10;;;;;;;8.52;6.82;;;5.30;99.90;;;;;;6202254;28;20490;-79
2022/02/02 23:25:14;;;;;;;7.07;5.43;;;5.90;99.90;;;;;;6202409;28;20033;-80
2022/02/02 23:28:18;;;;;;;6.07;4.97;;;6.00;99.90;;;;;;6202791;28;20469;-80
2022/02/02 23:31:19;;;;;;;6.60;5.00;;;5.70;99.90;;;;;;6218296;28;20369;-80
2022/02/02 23:34:20;;;;;;;7.03;5.18;;;6.50;99.90;;;;;;6185385;28;20069;-80
2022/02/02 23:37:21;;;;;;;15.57;6.07;;;5.70;99.90;;;;;;6202154;28;20104;-80
2022/02/02 23:40:21;;;;;;;8.93;5.50;;;5.80;99.90;;;;;;6185855;28;20026;-80
2022/02/02 23:43:23;;;;;;;6.82;5.70;;;5.80;99.90;;;;;;6201805;28;20559;-80
2022/02/02 23:46:25;;;;;;;7.25;6.22;;;5.60;99.90;;;;;;6201989;28;20365;-80
2022/02/02 23:49:35;;;;;;;6.47;5.32;;;5.60;99.90;;;;;;6185978;28;20388;-81
2022/02/02 23:52:46;;;;;;;8.45;6.18;;;5.20;99.90;;;;;;6202803;28;20125;-81
2022/02/02 23:55:50;;;;;;;6.32;5.40;;;5.70;99.90;;;;;;6188463;28;20038;-80
2022/02/02 23:58:54;;;;;;;7.63;6.20;;;5.70;99.90;;;;;;6184518;28;20052;-79
